sensor_id;sensor_type;location;lat;lon;timestamp;temperature;humidity
25951;DHT22;13748;52.240;6.002;2023-03-14T00:01:14;12.40;99.90
25951;DHT22;13748;52.240;6.002;2023-03-14T00:03:41;12.40;99.90
25951;DHT22;13748;52.240;6.002;2023-03-14T00:06:08;12.40;99.90
25951;DHT22;13748;52.240;6.002;2023-03-14T00:08:35;12.40;99.90
25951;DHT22;13748;52.240;6.002;2023-03-14T00:11:07;12.40;99.90
25951;DHT22;13748;52.240;6.002;2023-03-14T00:13:34;12.40;99.90
25951;DHT22;13748;52.240;6.002;2023-03-14T00:16:09;12.40;99.90
25951;DHT22;13748;52.240;6.002;2023-03-14T00:18:37;12.30;99.90
25951;DHT22;13748;52.240;6.002;2023-03-14T00:21:05;12.30;99.90
25951;DHT22;13748;52.240;6.002;2023-03-14T00:23:34;12.30;99.90
25951;DHT22;13748;52.240;6.002;2023-03-14T00:26:03;12.30;99.90
25951;DHT22;13748;52.240;6.002;2023-03-14T00:28:30;12.40;99.90
25951;DHT22;13748;52.240;6.002;2023-03-14T00:30:57;12.30;99.90
25951;DHT22;13748;52.240;6.002;2023-03-14T00:33:24;12.30;99.90
25951;DHT22;13748;52.240;6.002;2023-03-14T00:36:08;12.40;99.90
25951;DHT22;13748;52.240;6.002;2023-03-14T00:38:36;12.40;99.90
25951;DHT22;13748;52.240;6.002;2023-03-14T00:41:07;12.40;99.90
25951;DHT22;13748;52.240;6.002;2023-03-14T00:43:35;12.40;99.90
25951;DHT22;13748;52.240;6.002;2023-03-14T00:46:02;12.40;99.90
25951;DHT22;13748;52.240;6.002;2023-03-14T00:48:29;12.40;99.90
25951;DHT22;13748;52.240;6.002;2023-03-14T00:50:56;12.40;99.90
25951;DHT22;13748;52.240;6.002;2023-03-14T00:53:23;12.40;99.90
25951;DHT22;13748;52.240;6.002;2023-03-14T00:55:50;12.40;99.90
25951;DHT22;13748;52.240;6.002;2023-03-14T00:58:17;12.40;99.90
25951;DHT22;13748;52.240;6.002;2023-03-14T01:00:45;12.30;99.90
25951;DHT22;13748;52.240;6.002;2023-03-14T01:03:13;12.30;99.90
25951;DHT22;13748;52.240;6.002;2023-03-14T01:05:40;12.40;99.90
25951;DHT22;13748;52.240;6.002;2023-03-14T01:08:08;12.40;99.90
25951;DHT22;13748;52.240;6.002;2023-03-14T01:10:39;12.40;99.90
25951;DHT22;13748;52.240;6.002;2023-03-14T01:13:07;12.40;99.90
25951;DHT22;13748;52.240;6.002;2023-03-14T01:15:35;12.30;99.90
25951;DHT22;13748;52.240;6.002;2023-03-14T01:18:02;12.30;99.90
25951;DHT22;13748;52.240;6.002;2023-03-14T01:20:29;12.20;99.90
25951;DHT22;13748;52.240;6.002;2023-03-14T01:22:56;12.20;99.90
25951;DHT22;13748;52.240;6.002;2023-03-14T01:25:22;12.10;99.90
25951;DHT22;13748;52.240;6.002;2023-03-14T01:27:49;12.20;99.90
25951;DHT22;13748;52.240;6.002;2023-03-14T01:30:16;12.10;99.90
25951;DHT22;13748;52.240;6.002;2023-03-14T01:32:42;12.00;99.90
25951;DHT22;13748;52.240;6.002;2023-03-14T01:35:09;12.10;99.90
25951;DHT22;13748;52.240;6.002;2023-03-14T01:37:36;12.00;99.90
25951;DHT22;13748;52.240;6.002;2023-03-14T01:40:03;11.90;99.90
25951;DHT22;13748;52.240;6.002;2023-03-14T01:42:32;11.80;99.90
25951;DHT22;13748;52.240;6.002;2023-03-14T01:45:00;11.80;99.90
25951;DHT22;13748;52.240;6.002;2023-03-14T01:47:27;11.60;99.90
25951;DHT22;13748;52.240;6.002;2023-03-14T01:50:08;11.40;99.90
25951;DHT22;13748;52.240;6.002;2023-03-14T01:52:44;11.40;99.90
25951;DHT22;13748;52.240;6.002;2023-03-14T01:55:18;11.20;99.90
25951;DHT22;13748;52.240;6.002;2023-03-14T01:57:48;11.10;99.90
25951;DHT22;13748;52.240;6.002;2023-03-14T02:00:18;11.10;99.90
25951;DHT22;13748;52.240;6.002;2023-03-14T02:02:49;11.00;99.90
25951;DHT22;13748;52.240;6.002;2023-03-14T02:05:19;10.90;99.90
25951;DHT22;13748;52.240;6.002;2023-03-14T02:07:56;10.80;99.90
25951;DHT22;13748;52.240;6.002;2023-03-14T02:10:27;10.80;99.90
25951;DHT22;13748;52.240;6.002;2023-03-14T02:12:55;10.60;99.90
25951;DHT22;13748;52.240;6.002;2023-03-14T02:15:23;10.60;99.90
25951;DHT22;13748;52.240;6.002;2023-03-14T02:17:51;10.40;99.90
25951;DHT22;13748;52.240;6.002;2023-03-14T02:23:07;10.30;99.90
25951;DHT22;13748;52.240;6.002;2023-03-14T02:28:10;10.20;99.90
25951;DHT22;13748;52.240;6.002;2023-03-14T02:30:37;10.20;99.90
25951;DHT22;13748;52.240;6.002;2023-03-14T02:33:09;10.20;99.90
25951;DHT22;13748;52.240;6.002;2023-03-14T02:35:52;10.20;99.90
25951;DHT22;13748;52.240;6.002;2023-03-14T02:38:29;10.10;99.90
25951;DHT22;13748;52.240;6.002;2023-03-14T02:40:57;10.00;99.90
25951;DHT22;13748;52.240;6.002;2023-03-14T02:43:24;10.10;99.90
25951;DHT22;13748;52.240;6.002;2023-03-14T02:45:52;10.10;99.90
25951;DHT22;13748;52.240;6.002;2023-03-14T02:48:50;10.20;99.90
25951;DHT22;13748;52.240;6.002;2023-03-14T02:51:19;10.10;99.90
25951;DHT22;13748;52.240;6.002;2023-03-14T02:53:45;10.20;99.90
25951;DHT22;13748;52.240;6.002;2023-03-14T02:56:12;10.20;99.90
25951;DHT22;13748;52.240;6.002;2023-03-14T02:58:39;10.20;99.90
25951;DHT22;13748;52.240;6.002;2023-03-14T03:01:06;10.20;99.90
25951;DHT22;13748;52.240;6.002;2023-03-14T03:03:33;10.10;99.90
25951;DHT22;13748;52.240;6.002;2023-03-14T03:06:00;10.20;99.90
25951;DHT22;13748;52.240;6.002;2023-03-14T03:08:27;10.10;99.90
25951;DHT22;13748;52.240;6.002;2023-03-14T03:10:56;10.10;99.90
25951;DHT22;13748;52.240;6.002;2023-03-14T03:13:23;10.10;99.90
25951;DHT22;13748;52.240;6.002;2023-03-14T03:15:49;10.10;99.90
25951;DHT22;13748;52.240;6.002;2023-03-14T03:18:16;10.10;99.90
25951;DHT22;13748;52.240;6.002;2023-03-14T03:20:43;10.10;99.90
25951;DHT22;13748;52.240;6.002;2023-03-14T03:23:10;10.10;99.90
25951;DHT22;13748;52.240;6.002;2023-03-14T03:25:36;10.10;99.90
25951;DHT22;13748;52.240;6.002;2023-03-14T03:28:03;10.10;99.90
25951;DHT22;13748;52.240;6.002;2023-03-14T03:30:38;10.10;99.90
25951;DHT22;13748;52.240;6.002;2023-03-14T03:33:05;10.10;99.90
25951;DHT22;13748;52.240;6.002;2023-03-14T03:35:32;10.10;99.90
25951;DHT22;13748;52.240;6.002;2023-03-14T03:37:59;10.20;99.90
25951;DHT22;13748;52.240;6.002;2023-03-14T03:40:26;10.20;99.90
25951;DHT22;13748;52.240;6.002;2023-03-14T03:42:52;10.20;99.90
25951;DHT22;13748;52.240;6.002;2023-03-14T03:45:19;10.20;99.90
25951;DHT22;13748;52.240;6.002;2023-03-14T03:47:46;10.20;99.90
25951;DHT22;13748;52.240;6.002;2023-03-14T03:50:12;10.30;99.90
25951;DHT22;13748;52.240;6.002;2023-03-14T03:52:39;10.20;99.90
25951;DHT22;13748;52.240;6.002;2023-03-14T03:55:06;10.20;99.90
25951;DHT22;13748;52.240;6.002;2023-03-14T03:57:33;10.20;99.90
25951;DHT22;13748;52.240;6.002;2023-03-14T04:00:00;10.20;99.90
25951;DHT22;13748;52.240;6.002;2023-03-14T04:02:26;10.20;99.90
25951;DHT22;13748;52.240;6.002;2023-03-14T04:04:53;10.20;99.90
25951;DHT22;13748;52.240;6.002;2023-03-14T04:07:20;10.20;99.90
25951;DHT22;13748;52.240;6.002;2023-03-14T04:09:46;10.20;99.90
25951;DHT22;13748;52.240;6.002;2023-03-14T04:12:13;10.10;99.90
25951;DHT22;13748;52.240;6.002;2023-03-14T04:14:40;10.10;99.90
25951;DHT22;13748;52.240;6.002;2023-03-14T04:17:07;10.10;99.90
25951;DHT22;13748;52.240;6.002;2023-03-14T04:19:34;10.10;99.90
25951;DHT22;13748;52.240;6.002;2023-03-14T04:22:01;10.10;99.90
25951;DHT22;13748;52.240;6.002;2023-03-14T04:24:28;10.20;99.90
25951;DHT22;13748;52.240;6.002;2023-03-14T04:26:57;10.10;99.90
25951;DHT22;13748;52.240;6.002;2023-03-14T04:29:24;10.20;99.90
25951;DHT22;13748;52.240;6.002;2023-03-14T04:31:50;10.20;99.90
25951;DHT22;13748;52.240;6.002;2023-03-14T04:34:17;10.10;99.90
25951;DHT22;13748;52.240;6.002;2023-03-14T04:36:44;10.10;99.90
25951;DHT22;13748;52.240;6.002;2023-03-14T04:39:11;10.10;99.90
25951;DHT22;13748;52.240;6.002;2023-03-14T04:41:38;10.10;99.90
25951;DHT22;13748;52.240;6.002;2023-03-14T04:44:04;10.10;99.90
25951;DHT22;13748;52.240;6.002;2023-03-14T04:46:31;10.10;99.90
25951;DHT22;13748;52.240;6.002;2023-03-14T04:48:58;10.10;99.90
25951;DHT22;13748;52.240;6.002;2023-03-14T04:51:25;10.10;99.90
25951;DHT22;13748;52.240;6.002;2023-03-14T04:53:54;10.00;99.90
25951;DHT22;13748;52.240;6.002;2023-03-14T04:56:21;10.10;99.90
25951;DHT22;13748;52.240;6.002;2023-03-14T04:58:48;10.10;99.90
25951;DHT22;13748;52.240;6.002;2023-03-14T05:01:14;10.10;99.90
25951;DHT22;13748;52.240;6.002;2023-03-14T05:03:41;10.10;99.90
25951;DHT22;13748;52.240;6.002;2023-03-14T05:06:08;10.20;99.90
25951;DHT22;13748;52.240;6.002;2023-03-14T05:08:35;10.20;99.90
25951;DHT22;13748;52.240;6.002;2023-03-14T05:11:02;10.30;99.90
25951;DHT22;13748;52.240;6.002;2023-03-14T05:13:29;10.20;99.90
25951;DHT22;13748;52.240;6.002;2023-03-14T05:16:07;10.30;99.90
25951;DHT22;13748;52.240;6.002;2023-03-14T05:18:34;10.20;99.90
25951;DHT22;13748;52.240;6.002;2023-03-14T05:21:02;10.20;99.90
25951;DHT22;13748;52.240;6.002;2023-03-14T05:23:29;10.20;99.90
25951;DHT22;13748;52.240;6.002;2023-03-14T05:25:56;10.20;99.90
25951;DHT22;13748;52.240;6.002;2023-03-14T05:28:22;10.30;99.90
25951;DHT22;13748;52.240;6.002;2023-03-14T05:30:49;10.30;99.90
25951;DHT22;13748;52.240;6.002;2023-03-14T05:33:16;10.30;99.90
25951;DHT22;13748;52.240;6.002;2023-03-14T05:35:43;10.40;99.90
25951;DHT22;13748;52.240;6.002;2023-03-14T05:38:09;10.30;99.90
25951;DHT22;13748;52.240;6.002;2023-03-14T05:40:36;10.30;99.90
25951;DHT22;13748;52.240;6.002;2023-03-14T05:43:03;10.30;99.90
25951;DHT22;13748;52.240;6.002;2023-03-14T05:45:30;10.30;99.90
25951;DHT22;13748;52.240;6.002;2023-03-14T05:47:58;10.40;99.90
25951;DHT22;13748;52.240;6.002;2023-03-14T05:50:25;10.40;99.90
25951;DHT22;13748;52.240;6.002;2023-03-14T05:52:52;10.30;99.90
25951;DHT22;13748;52.240;6.002;2023-03-14T05:55:19;10.30;99.90
25951;DHT22;13748;52.240;6.002;2023-03-14T05:57:45;10.30;99.90
25951;DHT22;13748;52.240;6.002;2023-03-14T06:00:12;10.20;99.90
25951;DHT22;13748;52.240;6.002;2023-03-14T06:02:39;10.20;99.90
25951;DHT22;13748;52.240;6.002;2023-03-14T06:05:07;10.20;99.90
25951;DHT22;13748;52.240;6.002;2023-03-14T06:07:34;10.20;99.90
25951;DHT22;13748;52.240;6.002;2023-03-14T06:10:00;10.20;99.90
25951;DHT22;13748;52.240;6.002;2023-03-14T06:12:27;10.10;99.90
25951;DHT22;13748;52.240;6.002;2023-03-14T06:14:54;10.00;99.90
25951;DHT22;13748;52.240;6.002;2023-03-14T06:17:21;10.00;99.90
25951;DHT22;13748;52.240;6.002;2023-03-14T06:19:48;10.00;99.90
25951;DHT22;13748;52.240;6.002;2023-03-14T06:22:15;10.00;99.90
25951;DHT22;13748;52.240;6.002;2023-03-14T06:24:42;10.00;99.90
25951;DHT22;13748;52.240;6.002;2023-03-14T06:27:08;10.00;99.90
25951;DHT22;13748;52.240;6.002;2023-03-14T06:29:35;10.00;99.90
25951;DHT22;13748;52.240;6.002;2023-03-14T06:32:02;9.90;99.90
25951;DHT22;13748;52.240;6.002;2023-03-14T06:34:29;10.00;99.90
25951;DHT22;13748;52.240;6.002;2023-03-14T06:36:55;10.00;99.90
25951;DHT22;13748;52.240;6.002;2023-03-14T06:39:22;10.00;99.90
25951;DHT22;13748;52.240;6.002;2023-03-14T06:41:49;9.90;99.90
25951;DHT22;13748;52.240;6.002;2023-03-14T06:44:15;10.00;99.90
25951;DHT22;13748;52.240;6.002;2023-03-14T06:46:42;9.90;99.90
25951;DHT22;13748;52.240;6.002;2023-03-14T06:49:09;9.90;99.90
25951;DHT22;13748;52.240;6.002;2023-03-14T06:51:36;9.90;99.90
25951;DHT22;13748;52.240;6.002;2023-03-14T06:54:02;9.90;99.90
25951;DHT22;13748;52.240;6.002;2023-03-14T06:56:29;10.00;99.90
25951;DHT22;13748;52.240;6.002;2023-03-14T06:58:56;10.00;99.90
25951;DHT22;13748;52.240;6.002;2023-03-14T07:01:25;10.10;99.90
25951;DHT22;13748;52.240;6.002;2023-03-14T07:03:52;10.10;99.90
25951;DHT22;13748;52.240;6.002;2023-03-14T07:06:19;10.10;99.90
25951;DHT22;13748;52.240;6.002;2023-03-14T07:08:46;10.00;99.90
25951;DHT22;13748;52.240;6.002;2023-03-14T07:11:13;10.00;99.90
25951;DHT22;13748;52.240;6.002;2023-03-14T07:13:39;10.00;99.90
25951;DHT22;13748;52.240;6.002;2023-03-14T07:16:07;10.00;99.90
25951;DHT22;13748;52.240;6.002;2023-03-14T07:18:34;10.00;99.90
25951;DHT22;13748;52.240;6.002;2023-03-14T07:21:01;9.60;99.90
25951;DHT22;13748;52.240;6.002;2023-03-14T07:23:27;9.30;99.90
25951;DHT22;13748;52.240;6.002;2023-03-14T07:25:54;9.20;99.90
25951;DHT22;13748;52.240;6.002;2023-03-14T07:28:21;9.00;99.90
25951;DHT22;13748;52.240;6.002;2023-03-14T07:30:49;8.90;99.90
25951;DHT22;13748;52.240;6.002;2023-03-14T07:33:16;8.90;99.90
25951;DHT22;13748;52.240;6.002;2023-03-14T07:35:43;8.80;99.90
25951;DHT22;13748;52.240;6.002;2023-03-14T07:38:10;8.70;99.90
25951;DHT22;13748;52.240;6.002;2023-03-14T07:40:36;8.70;99.90
25951;DHT22;13748;52.240;6.002;2023-03-14T07:43:03;8.60;99.90
25951;DHT22;13748;52.240;6.002;2023-03-14T07:45:30;8.60;99.90
25951;DHT22;13748;52.240;6.002;2023-03-14T07:47:56;8.50;99.90
25951;DHT22;13748;52.240;6.002;2023-03-14T07:50:27;8.40;99.90
25951;DHT22;13748;52.240;6.002;2023-03-14T07:52:55;8.40;99.90
25951;DHT22;13748;52.240;6.002;2023-03-14T07:55:21;8.30;99.90
25951;DHT22;13748;52.240;6.002;2023-03-14T07:57:48;8.20;99.90
25951;DHT22;13748;52.240;6.002;2023-03-14T08:00:15;8.20;99.90
25951;DHT22;13748;52.240;6.002;2023-03-14T08:02:42;8.10;99.90
25951;DHT22;13748;52.240;6.002;2023-03-14T08:05:09;8.10;99.90
25951;DHT22;13748;52.240;6.002;2023-03-14T08:07:36;8.10;99.90
25951;DHT22;13748;52.240;6.002;2023-03-14T08:10:04;8.00;99.90
25951;DHT22;13748;52.240;6.002;2023-03-14T08:12:31;8.00;99.90
25951;DHT22;13748;52.240;6.002;2023-03-14T08:14:57;8.00;99.90
25951;DHT22;13748;52.240;6.002;2023-03-14T08:17:26;8.00;99.90
25951;DHT22;13748;52.240;6.002;2023-03-14T08:19:54;7.90;99.90
25951;DHT22;13748;52.240;6.002;2023-03-14T08:22:21;7.80;99.90
25951;DHT22;13748;52.240;6.002;2023-03-14T08:24:47;7.70;99.90
25951;DHT22;13748;52.240;6.002;2023-03-14T08:27:14;7.60;99.90
25951;DHT22;13748;52.240;6.002;2023-03-14T08:29:41;7.30;99.90
25951;DHT22;13748;52.240;6.002;2023-03-14T08:32:08;7.30;99.90
25951;DHT22;13748;52.240;6.002;2023-03-14T08:34:35;7.10;99.90
25951;DHT22;13748;52.240;6.002;2023-03-14T08:37:02;7.10;99.90
25951;DHT22;13748;52.240;6.002;2023-03-14T08:39:36;6.90;99.90
25951;DHT22;13748;52.240;6.002;2023-03-14T08:42:03;6.90;99.90
25951;DHT22;13748;52.240;6.002;2023-03-14T08:44:30;6.80;99.90
25951;DHT22;13748;52.240;6.002;2023-03-14T08:46:57;6.80;99.90
25951;DHT22;13748;52.240;6.002;2023-03-14T08:49:24;6.80;99.90
25951;DHT22;13748;52.240;6.002;2023-03-14T08:51:50;6.80;99.90
25951;DHT22;13748;52.240;6.002;2023-03-14T08:54:17;6.70;99.90
25951;DHT22;13748;52.240;6.002;2023-03-14T08:56:45;6.60;99.90
25951;DHT22;13748;52.240;6.002;2023-03-14T08:59:11;6.60;99.90
25951;DHT22;13748;52.240;6.002;2023-03-14T09:01:38;6.60;99.90
25951;DHT22;13748;52.240;6.002;2023-03-14T09:04:05;6.70;99.90
25951;DHT22;13748;52.240;6.002;2023-03-14T09:06:33;6.70;99.90
25951;DHT22;13748;52.240;6.002;2023-03-14T09:09:00;6.70;99.90
25951;DHT22;13748;52.240;6.002;2023-03-14T09:11:26;6.70;99.90
25951;DHT22;13748;52.240;6.002;2023-03-14T09:13:53;6.70;99.90
25951;DHT22;13748;52.240;6.002;2023-03-14T09:16:20;6.80;99.90
25951;DHT22;13748;52.240;6.002;2023-03-14T09:18:48;6.80;99.90
25951;DHT22;13748;52.240;6.002;2023-03-14T09:21:15;6.80;99.90
25951;DHT22;13748;52.240;6.002;2023-03-14T09:23:42;6.80;99.90
25951;DHT22;13748;52.240;6.002;2023-03-14T09:26:10;6.90;99.90
25951;DHT22;13748;52.240;6.002;2023-03-14T09:28:37;7.00;99.90
25951;DHT22;13748;52.240;6.002;2023-03-14T09:31:08;7.00;99.90
25951;DHT22;13748;52.240;6.002;2023-03-14T09:33:36;7.00;99.90
25951;DHT22;13748;52.240;6.002;2023-03-14T09:36:03;7.20;99.90
25951;DHT22;13748;52.240;6.002;2023-03-14T09:38:31;7.20;99.90
25951;DHT22;13748;52.240;6.002;2023-03-14T09:41:01;7.30;99.90
25951;DHT22;13748;52.240;6.002;2023-03-14T09:43:29;7.30;99.90
25951;DHT22;13748;52.240;6.002;2023-03-14T09:45:58;7.40;99.90
25951;DHT22;13748;52.240;6.002;2023-03-14T09:48:30;7.40;99.90
25951;DHT22;13748;52.240;6.002;2023-03-14T09:50:59;7.40;99.90
25951;DHT22;13748;52.240;6.002;2023-03-14T09:53:40;7.40;99.90
25951;DHT22;13748;52.240;6.002;2023-03-14T09:56:18;7.40;99.90
25951;DHT22;13748;52.240;6.002;2023-03-14T09:58:51;7.40;99.90
25951;DHT22;13748;52.240;6.002;2023-03-14T10:01:29;7.50;99.90
25951;DHT22;13748;52.240;6.002;2023-03-14T10:04:06;7.50;99.90
25951;DHT22;13748;52.240;6.002;2023-03-14T10:06:36;7.40;99.90
25951;DHT22;13748;52.240;6.002;2023-03-14T10:09:03;7.40;99.90
25951;DHT22;13748;52.240;6.002;2023-03-14T10:11:32;7.40;99.90
25951;DHT22;13748;52.240;6.002;2023-03-14T10:16:50;7.40;99.90
25951;DHT22;13748;52.240;6.002;2023-03-14T10:19:17;7.50;99.90
25951;DHT22;13748;52.240;6.002;2023-03-14T10:21:50;7.70;99.90
25951;DHT22;13748;52.240;6.002;2023-03-14T10:24:30;7.90;99.90
25951;DHT22;13748;52.240;6.002;2023-03-14T10:29:29;8.00;99.90
25951;DHT22;13748;52.240;6.002;2023-03-14T10:32:10;7.80;99.90
25951;DHT22;13748;52.240;6.002;2023-03-14T10:34:45;7.40;99.90
25951;DHT22;13748;52.240;6.002;2023-03-14T10:37:21;6.90;99.90
25951;DHT22;13748;52.240;6.002;2023-03-14T10:39:53;6.70;99.90
25951;DHT22;13748;52.240;6.002;2023-03-14T10:42:26;6.70;99.90
25951;DHT22;13748;52.240;6.002;2023-03-14T10:45:01;6.70;99.90
25951;DHT22;13748;52.240;6.002;2023-03-14T10:47:29;6.70;99.90
25951;DHT22;13748;52.240;6.002;2023-03-14T10:49:56;6.80;99.90
25951;DHT22;13748;52.240;6.002;2023-03-14T10:52:29;6.80;99.90
25951;DHT22;13748;52.240;6.002;2023-03-14T10:55:18;6.80;99.90
25951;DHT22;13748;52.240;6.002;2023-03-14T10:57:44;6.90;99.90
25951;DHT22;13748;52.240;6.002;2023-03-14T11:00:22;7.10;99.90
25951;DHT22;13748;52.240;6.002;2023-03-14T11:05:31;7.40;99.90
25951;DHT22;13748;52.240;6.002;2023-03-14T11:08:06;7.40;99.90
25951;DHT22;13748;52.240;6.002;2023-03-14T11:10:36;7.40;99.90
25951;DHT22;13748;52.240;6.002;2023-03-14T11:13:17;7.40;99.90
25951;DHT22;13748;52.240;6.002;2023-03-14T11:16:09;7.50;99.90
25951;DHT22;13748;52.240;6.002;2023-03-14T11:27:25;7.50;99.90
25951;DHT22;13748;52.240;6.002;2023-03-14T11:30:38;7.50;99.90
25951;DHT22;13748;52.240;6.002;2023-03-14T11:38:33;7.80;99.90
25951;DHT22;13748;52.240;6.002;2023-03-14T11:41:01;7.80;99.90
25951;DHT22;13748;52.240;6.002;2023-03-14T11:43:37;7.80;99.90
25951;DHT22;13748;52.240;6.002;2023-03-14T11:46:15;8.00;99.90
25951;DHT22;13748;52.240;6.002;2023-03-14T11:51:45;8.30;99.90
25951;DHT22;13748;52.240;6.002;2023-03-14T11:57:02;8.40;99.90
25951;DHT22;13748;52.240;6.002;2023-03-14T12:02:04;8.70;99.90
25951;DHT22;13748;52.240;6.002;2023-03-14T12:07:21;8.80;99.90
25951;DHT22;13748;52.240;6.002;2023-03-14T12:09:52;8.90;99.90
25951;DHT22;13748;52.240;6.002;2023-03-14T12:12:24;8.90;99.90
25951;DHT22;13748;52.240;6.002;2023-03-14T12:14:54;8.90;99.90
25951;DHT22;13748;52.240;6.002;2023-03-14T12:17:44;8.80;99.90
25951;DHT22;13748;52.240;6.002;2023-03-14T12:22:54;8.90;99.90
25951;DHT22;13748;52.240;6.002;2023-03-14T12:25:23;8.90;99.90
25951;DHT22;13748;52.240;6.002;2023-03-14T12:36:02;9.40;99.90
25951;DHT22;13748;52.240;6.002;2023-03-14T12:41:28;9.30;99.90
25951;DHT22;13748;52.240;6.002;2023-03-14T12:43:56;9.20;99.90
25951;DHT22;13748;52.240;6.002;2023-03-14T12:46:25;9.00;99.90
25951;DHT22;13748;52.240;6.002;2023-03-14T12:51:40;8.70;99.90
25951;DHT22;13748;52.240;6.002;2023-03-14T12:54:43;8.60;99.90
25951;DHT22;13748;52.240;6.002;2023-03-14T13:00:24;8.60;99.90
25951;DHT22;13748;52.240;6.002;2023-03-14T13:03:02;8.70;99.90
25951;DHT22;13748;52.240;6.002;2023-03-14T13:05:59;8.70;99.90
25951;DHT22;13748;52.240;6.002;2023-03-14T13:08:35;8.70;99.90
25951;DHT22;13748;52.240;6.002;2023-03-14T13:11:16;8.70;99.90
25951;DHT22;13748;52.240;6.002;2023-03-14T13:13:48;8.70;99.90
25951;DHT22;13748;52.240;6.002;2023-03-14T13:16:21;8.80;99.90
25951;DHT22;13748;52.240;6.002;2023-03-14T13:19:13;8.80;99.90
25951;DHT22;13748;52.240;6.002;2023-03-14T13:21:37;8.70;99.90
25951;DHT22;13748;52.240;6.002;2023-03-14T13:24:22;8.50;99.90
25951;DHT22;13748;52.240;6.002;2023-03-14T13:26:53;8.60;99.90
25951;DHT22;13748;52.240;6.002;2023-03-14T13:29:26;8.70;99.90
25951;DHT22;13748;52.240;6.002;2023-03-14T13:32:02;8.80;99.90
25951;DHT22;13748;52.240;6.002;2023-03-14T13:34:33;8.80;99.90
25951;DHT22;13748;52.240;6.002;2023-03-14T13:37:01;8.90;99.90
25951;DHT22;13748;52.240;6.002;2023-03-14T13:39:28;8.90;99.90
25951;DHT22;13748;52.240;6.002;2023-03-14T13:42:15;9.00;99.90
25951;DHT22;13748;52.240;6.002;2023-03-14T13:44:42;9.10;99.90
25951;DHT22;13748;52.240;6.002;2023-03-14T13:47:16;9.30;99.90
25951;DHT22;13748;52.240;6.002;2023-03-14T13:49:47;9.20;99.90
25951;DHT22;13748;52.240;6.002;2023-03-14T13:52:35;9.20;99.90
25951;DHT22;13748;52.240;6.002;2023-03-14T13:55:04;9.10;99.90
25951;DHT22;13748;52.240;6.002;2023-03-14T13:57:52;9.00;99.90
25951;DHT22;13748;52.240;6.002;2023-03-14T14:00:26;8.80;99.90
25951;DHT22;13748;52.240;6.002;2023-03-14T14:03:00;8.70;99.90
25951;DHT22;13748;52.240;6.002;2023-03-14T14:05:28;8.70;99.90
25951;DHT22;13748;52.240;6.002;2023-03-14T14:07:56;8.60;99.90
25951;DHT22;13748;52.240;6.002;2023-03-14T14:10:23;8.50;99.90
25951;DHT22;13748;52.240;6.002;2023-03-14T14:12:57;8.60;99.90
25951;DHT22;13748;52.240;6.002;2023-03-14T14:15:49;8.70;99.90
25951;DHT22;13748;52.240;6.002;2023-03-14T14:18:18;8.80;99.90
25951;DHT22;13748;52.240;6.002;2023-03-14T14:20:47;8.80;99.90
25951;DHT22;13748;52.240;6.002;2023-03-14T14:23:24;8.70;99.90
25951;DHT22;13748;52.240;6.002;2023-03-14T14:25:55;8.50;99.90
25951;DHT22;13748;52.240;6.002;2023-03-14T14:28:32;8.40;99.90
25951;DHT22;13748;52.240;6.002;2023-03-14T14:31:01;8.40;99.90
25951;DHT22;13748;52.240;6.002;2023-03-14T14:33:28;8.40;99.90
25951;DHT22;13748;52.240;6.002;2023-03-14T14:35:58;8.40;99.90
25951;DHT22;13748;52.240;6.002;2023-03-14T14:38:27;8.40;99.90
25951;DHT22;13748;52.240;6.002;2023-03-14T14:40:59;8.50;99.90
25951;DHT22;13748;52.240;6.002;2023-03-14T14:43:28;8.60;99.90
25951;DHT22;13748;52.240;6.002;2023-03-14T14:45:57;8.70;99.90
25951;DHT22;13748;52.240;6.002;2023-03-14T14:48:26;8.70;99.90
25951;DHT22;13748;52.240;6.002;2023-03-14T14:51:01;8.70;99.90
25951;DHT22;13748;52.240;6.002;2023-03-14T14:53:37;8.50;99.90
25951;DHT22;13748;52.240;6.002;2023-03-14T14:56:17;8.50;99.90
25951;DHT22;13748;52.240;6.002;2023-03-14T14:58:46;8.40;99.90
25951;DHT22;13748;52.240;6.002;2023-03-14T15:01:25;8.30;99.90
25951;DHT22;13748;52.240;6.002;2023-03-14T15:03:56;8.30;99.90
25951;DHT22;13748;52.240;6.002;2023-03-14T15:06:28;8.20;99.90
25951;DHT22;13748;52.240;6.002;2023-03-14T15:08:56;8.10;99.90
25951;DHT22;13748;52.240;6.002;2023-03-14T15:11:25;8.10;99.90
25951;DHT22;13748;52.240;6.002;2023-03-14T15:13:53;8.10;99.90
25951;DHT22;13748;52.240;6.002;2023-03-14T15:16:23;8.00;99.90
25951;DHT22;13748;52.240;6.002;2023-03-14T15:18:54;7.80;99.90
25951;DHT22;13748;52.240;6.002;2023-03-14T15:21:26;7.80;99.90
25951;DHT22;13748;52.240;6.002;2023-03-14T15:23:54;7.70;99.90
25951;DHT22;13748;52.240;6.002;2023-03-14T15:26:24;7.60;99.90
25951;DHT22;13748;52.240;6.002;2023-03-14T15:28:51;7.60;99.90
25951;DHT22;13748;52.240;6.002;2023-03-14T15:31:19;7.60;99.90
25951;DHT22;13748;52.240;6.002;2023-03-14T15:33:48;7.60;99.90
25951;DHT22;13748;52.240;6.002;2023-03-14T15:36:26;7.60;99.90
25951;DHT22;13748;52.240;6.002;2023-03-14T15:38:54;7.70;99.90
25951;DHT22;13748;52.240;6.002;2023-03-14T15:41:22;7.70;99.90
25951;DHT22;13748;52.240;6.002;2023-03-14T15:43:50;7.70;99.90
25951;DHT22;13748;52.240;6.002;2023-03-14T15:46:18;7.70;99.90
25951;DHT22;13748;52.240;6.002;2023-03-14T15:48:45;7.70;99.90
25951;DHT22;13748;52.240;6.002;2023-03-14T15:51:12;7.70;99.90
25951;DHT22;13748;52.240;6.002;2023-03-14T15:53:41;7.80;99.90
25951;DHT22;13748;52.240;6.002;2023-03-14T15:56:18;7.90;99.90
25951;DHT22;13748;52.240;6.002;2023-03-14T15:58:45;8.00;99.90
25951;DHT22;13748;52.240;6.002;2023-03-14T16:01:16;7.90;99.90
25951;DHT22;13748;52.240;6.002;2023-03-14T16:03:44;7.90;99.90
25951;DHT22;13748;52.240;6.002;2023-03-14T16:06:12;7.80;99.90
25951;DHT22;13748;52.240;6.002;2023-03-14T16:08:39;7.70;99.90
25951;DHT22;13748;52.240;6.002;2023-03-14T16:11:06;7.70;99.90
25951;DHT22;13748;52.240;6.002;2023-03-14T16:13:33;7.60;99.90
25951;DHT22;13748;52.240;6.002;2023-03-14T16:16:02;7.50;99.90
25951;DHT22;13748;52.240;6.002;2023-03-14T16:18:33;7.50;99.90
25951;DHT22;13748;52.240;6.002;2023-03-14T16:21:03;7.40;99.90
25951;DHT22;13748;52.240;6.002;2023-03-14T16:23:32;7.30;99.90
25951;DHT22;13748;52.240;6.002;2023-03-14T16:26:03;7.30;99.90
25951;DHT22;13748;52.240;6.002;2023-03-14T16:28:30;7.20;99.90
25951;DHT22;13748;52.240;6.002;2023-03-14T16:31:02;7.20;99.90
25951;DHT22;13748;52.240;6.002;2023-03-14T16:33:30;7.20;99.90
25951;DHT22;13748;52.240;6.002;2023-03-14T16:35:59;7.20;99.90
25951;DHT22;13748;52.240;6.002;2023-03-14T16:38:27;7.20;99.90
25951;DHT22;13748;52.240;6.002;2023-03-14T16:41:01;7.20;99.90
25951;DHT22;13748;52.240;6.002;2023-03-14T16:43:29;7.20;99.90
25951;DHT22;13748;52.240;6.002;2023-03-14T16:45:59;7.20;99.90
25951;DHT22;13748;52.240;6.002;2023-03-14T16:48:27;7.20;99.90
25951;DHT22;13748;52.240;6.002;2023-03-14T16:50:55;7.20;99.90
25951;DHT22;13748;52.240;6.002;2023-03-14T16:53:22;7.10;99.90